Historyczne dane pomiarowe

Dodano dane terminowe – wersja testowa.

Dane z okresu 1951-2019

Wersja bazy: 1.34 [2019-03-16, lista zmian], aktualizacja planowana na 2019-04-15

Dane meteo z obszaru Polski uzyskane na podstawie danych udostępnionych przez Instytut Meteorologii i Gospodarki Wodnej – Państwowy Instytut Badawczy.

 

Wybierz Datę:    

       

TemperaturaWilgotnośćWiatrCiśnienieOpadyŚniegCzas trwania zjawisk
 Stacja t tx tn tng RH VA  wxwx mslp ppp RRR   cm mm wxwxwxwxwxwxwx
1973-08-13 5.2 8.1 3.9-100.0 8.9 7.9 7.8 8.7 0.0- 807.7 0.3 0.0 0.3- 0.0 0.3 0.1-- 23.0---
1973-08-14 3.5 6.1 1.8- 98.6 7.7 7.8 8.0 2.7 0.0- 806.8 0.0 0.0 0.0- 0.0 2.1-------
1973-08-15 3.7 7.2 1.8- 94.8 7.5 7.1 6.3 0.0 0.0- 806.0 0.0 0.0 0.0- 0.0 1.3--- 15.1---
1973-08-16 5.5 8.6 3.3- 98.9 9.0 6.5 5.5 0.0 0.0- 806.2 0.0 0.0 0.0- 0.0 2.1--- 19.8 0.5--
1973-08-17 7.6 11.1 5.5- 98.3 10.3 5.8 6.5 2.3 0.0- 806.4 0.0 0.0 0.0- 0.0 1.3 0.1--- 6.8--
1973-08-18 10.5 14.7 7.5- 82.0 10.3 4.0 3.5 0.0 0.0- 806.6 0.0 0.0 0.0- 0.0 11.4--- 1.8---
1973-08-19 11.4 15.3 8.7- 77.8 10.4 4.4 2.6 0.0 0.0- 807.1 0.0 0.0 0.0- 0.0 9.9---- 4.0--
1973-08-20 10.8 14.7 8.1- 82.8 10.6 6.6 7.5 0.0 0.0- 804.9 4.0 4.0 0.0- 0.0 4.4 1.1-- 5.4-- 1.8
1973-08-21 8.1 11.2 7.1- 95.3 10.2 7.8 5.0 0.0 0.0- 805.4 2.1 0.6 1.5- 0.0 2.5 0.8-- 21.0---
1973-08-22 4.0 7.2 1.2- 86.4 7.0 5.1 4.1 0.0 0.0- 806.8 0.0 0.0 0.0- 0.0 9.4 0.5-- 12.5---
1973-08-23 5.2 9.2 2.1- 59.3 5.3 0.6 5.1 0.0 0.0- 807.6 0.0 0.0 0.0- 0.0 13.1---- 4.0--
1973-08-24 6.8 9.5 4.9- 82.0 8.2 4.8 6.6 0.0 0.0- 804.6 0.7 0.7 0.0- 0.0 4.2 1.2------
1973-08-25 6.8 11.1 4.5- 87.1 8.6 4.5 5.1 0.0 0.0- 801.9 0.0 0.0 0.0- 0.0 8.6--- 6.5 1.8--
1973-08-26 4.1 7.9 2.5- 79.5 6.5 3.6 4.4 0.0 0.0- 803.9 0.0 0.0 0.0- 0.0 6.7--- 5.5 3.5--
1973-08-27 8.0 12.2 2.5- 34.4 4.0 0.0 3.6 0.0 0.0- 805.4 0.0 0.0 0.0- 0.0 13.1-------
1973-08-28 9.0 13.0 6.4- 60.8 7.0 0.9 1.6 0.0 0.0- 804.7 0.0 0.0 0.0- 0.0 11.3-------
1973-08-29 8.5 11.0 7.4- 86.8 9.6 6.8 1.1 0.0 0.0- 802.7 7.2 1.8 5.4- 0.0 1.7 7.4-- 8.2---
1973-08-30 6.4 7.8 5.0- 97.6 9.4 6.9 2.6 0.0 0.0- 800.7 1.2 1.2 0.0- 0.0 0.0 8.5-- 12.5---
1973-08-31 7.1 9.7 5.6- 87.0 8.8 5.6 2.6 0.0 0.0- 800.6 21.0 3.3 17.7- 0.0 1.9 9.3-- 5.7---
1973-09-01 3.6 6.8 1.1- 97.3 7.8 7.8 5.6 0.0 0.0- 802.2 3.7 2.5 1.2- 0.0 1.9 8.7-- 18.3---
1973-09-02 6.5 7.7 3.6- 96.8 9.3 7.1 8.5 8.5 0.0- 804.1 2.4 2.4 0.0- 0.0 0.5 7.3-- 13.3---
1973-09-03 7.4 8.5 6.1- 89.4 9.2 7.1 10.4 15.1 3.3- 805.0 1.0 0.7 0.3- 0.0 1.0 0.8-- 4.1---
1973-09-04 7.8 9.7 6.6- 96.0 10.1 6.6 8.8 9.3 2.2- 806.4 0.0 0.0 0.0- 0.0 2.8 2.7-- 17.0 1.5--
1973-09-05 10.9 15.5 7.5- 71.4 9.2 1.0 5.9 3.2 0.0- 808.6 0.0 0.0 0.0- 0.0 11.5---- 2.5--
1973-09-06 12.0 16.9 8.4- 65.8 9.0 2.8 7.1 7.1 0.4- 809.3 1.8 1.8 0.0- 0.0 9.1 2.6--- 4.0- 3.0
1973-09-07 11.4 15.2 8.3- 73.0 9.7 3.3 4.6 0.0 0.0- 810.2 0.0 0.0 0.0- 0.0 9.0--- 2.7---
1973-09-08 11.2 14.0 8.5- 64.4 8.3 2.3 5.8 0.0 0.0- 809.4 0.0 0.0 0.0- 0.0 9.9--- 2.2 0.8--
1973-09-09 11.8 15.7 10.1- 62.5 8.7 2.5 7.5 7.8 0.0- 806.0 0.0 0.0 0.0- 0.0 10.5-------
1973-09-10 6.2 11.1 -0.8- 91.6 8.8 6.6 7.9 8.3 0.0- 799.1 9.6 9.6 0.0- 0.0 1.4 6.4-- 17.8-- 0.9
1973-09-11 -1.1 1.2 -4.5- 92.0 5.2 5.6 7.1 4.3 0.0- 801.5 0.0 0.0 0.0- 0.0 8.5--- 11.1---
1135.0 ms

 

Źródłem pochodzenia danych jest Instytut Meteorologii i Gospodarki Wodnej – Państwowy Instytut Badawczy. Dane Instytutu Meteorologii i Gospodarki Wodnej – Państwowego Instytutu Badawczego zostały przetworzone.

Dane źródłowe można odnaleźć na stronie https://dane.imgw.pl